createdAt,value
2022-09-21T00:01:10.334Z,1.20
2022-09-21T00:03:37.544Z,1.20
2022-09-21T00:06:05.972Z,1.30
2022-09-21T00:08:32.826Z,1.40
2022-09-21T00:11:00.942Z,1.15
2022-09-21T00:13:29.731Z,1.23
2022-09-21T00:15:56.275Z,1.00
2022-09-21T00:18:23.688Z,1.20
2022-09-21T00:20:52.259Z,1.45
2022-09-21T00:23:19.644Z,1.20
2022-09-21T00:25:46.001Z,0.90
2022-09-21T00:28:13.000Z,1.02
2022-09-21T00:30:39.355Z,1.25
2022-09-21T00:33:06.176Z,1.30
2022-09-21T00:35:33.424Z,1.10
2022-09-21T00:38:03.526Z,1.35
2022-09-21T00:40:30.292Z,1.10
2022-09-21T00:43:23.163Z,1.20
2022-09-21T00:45:55.045Z,1.05
2022-09-21T00:48:21.462Z,1.17
2022-09-21T00:50:54.115Z,1.13
2022-09-21T00:53:32.654Z,1.05
2022-09-21T00:56:00.794Z,1.00
2022-09-21T00:58:40.743Z,0.88
2022-09-21T01:01:07.202Z,0.90
2022-09-21T01:03:33.920Z,1.13
2022-09-21T01:06:00.262Z,1.20
2022-09-21T01:08:28.327Z,1.20
2022-09-21T01:11:30.741Z,1.10
2022-09-21T01:14:03.151Z,1.42
2022-09-21T01:16:48.660Z,1.58
2022-09-21T01:19:32.695Z,1.15
2022-09-21T01:22:31.479Z,1.10
2022-09-21T01:25:20.767Z,1.30
2022-09-21T01:28:02.404Z,1.25
2022-09-21T01:30:33.883Z,0.90
2022-09-21T01:33:09.285Z,1.23
2022-09-21T01:36:05.909Z,2.40
2022-09-21T01:38:38.417Z,1.23
2022-09-21T01:41:07.939Z,1.30
2022-09-21T01:43:39.369Z,1.73
2022-09-21T01:46:10.829Z,1.60
2022-09-21T01:48:41.834Z,1.95
2022-09-21T01:51:11.702Z,1.80
2022-09-21T01:54:01.937Z,1.80
2022-09-21T01:56:35.349Z,1.90
2022-09-21T01:59:11.183Z,1.88
2022-09-21T02:01:45.095Z,1.60
2022-09-21T02:04:13.575Z,1.67
2022-09-21T02:06:43.528Z,1.75
2022-09-21T02:09:10.835Z,1.83
2022-09-21T02:11:43.868Z,1.48
2022-09-21T02:14:33.368Z,2.38
2022-09-21T02:17:26.344Z,1.67
2022-09-21T02:20:02.897Z,1.55
2022-09-21T02:22:47.373Z,1.65
2022-09-21T02:25:20.520Z,1.75
2022-09-21T02:27:58.693Z,1.63
2022-09-21T02:30:26.391Z,1.77
2022-09-21T02:33:34.406Z,1.60
2022-09-21T02:36:29.978Z,1.58
2022-09-21T02:39:06.403Z,1.50
2022-09-21T02:41:38.726Z,2.17
2022-09-21T02:44:19.893Z,1.42
2022-09-21T02:46:56.859Z,1.30
2022-09-21T02:49:33.651Z,1.38
2022-09-21T02:52:05.233Z,1.20
2022-09-21T02:54:33.481Z,1.33
2022-09-21T02:57:01.882Z,1.00
2022-09-21T02:59:28.475Z,0.90
2022-09-21T03:01:58.046Z,0.90
2022-09-21T03:04:24.948Z,0.88
2022-09-21T03:06:51.691Z,0.75
2022-09-21T03:09:18.581Z,0.57
2022-09-21T03:11:44.909Z,0.88
2022-09-21T03:14:11.257Z,0.80
2022-09-21T03:16:38.888Z,1.00
2022-09-21T03:19:05.810Z,0.80
2022-09-21T03:21:32.450Z,0.77
2022-09-21T03:23:58.785Z,0.60
2022-09-21T03:26:25.257Z,1.00
2022-09-21T03:28:54.530Z,0.95
2022-09-21T03:31:21.097Z,0.68
2022-09-21T03:33:47.582Z,1.05
2022-09-21T03:36:13.958Z,0.95
2022-09-21T03:38:40.285Z,0.90
2022-09-21T03:41:07.065Z,0.90
2022-09-21T03:43:33.440Z,0.88
2022-09-21T03:45:59.840Z,0.90
2022-09-21T03:48:26.308Z,0.70
2022-09-21T03:50:52.807Z,0.90
2022-09-21T03:53:19.136Z,1.17
2022-09-21T03:55:45.488Z,0.90
2022-09-21T03:58:11.915Z,0.90
2022-09-21T04:00:39.107Z,1.10
2022-09-21T04:03:05.420Z,1.13
2022-09-21T04:05:31.898Z,1.00
2022-09-21T04:07:58.867Z,1.10
2022-09-21T04:10:29.132Z,1.10
2022-09-21T04:13:01.307Z,1.05
2022-09-21T04:15:29.172Z,0.90
2022-09-21T04:17:55.974Z,1.30
2022-09-21T04:20:23.072Z,1.20
2022-09-21T04:22:49.439Z,1.23
2022-09-21T04:25:16.095Z,1.05
2022-09-21T04:27:42.768Z,1.50
2022-09-21T04:30:12.126Z,1.13
2022-09-21T04:32:38.828Z,1.25
2022-09-21T04:35:05.992Z,1.30
2022-09-21T04:37:32.349Z,1.60
2022-09-21T04:39:58.901Z,1.40
2022-09-21T04:42:25.330Z,1.30
2022-09-21T04:44:51.670Z,1.70
2022-09-21T04:47:18.063Z,1.38
2022-09-21T04:49:44.376Z,1.77
2022-09-21T04:52:11.705Z,1.45
2022-09-21T04:54:40.010Z,1.15
2022-09-21T04:57:06.543Z,1.20
2022-09-21T04:59:32.919Z,1.30
2022-09-21T05:01:59.464Z,1.42
2022-09-21T05:04:25.793Z,1.73
2022-09-21T05:06:52.144Z,1.40
2022-09-21T05:09:37.104Z,1.35
2022-09-21T05:12:03.759Z,0.98
2022-09-21T05:14:30.125Z,1.20
2022-09-21T05:16:56.447Z,1.33
2022-09-21T05:19:22.824Z,1.27
2022-09-21T05:21:49.156Z,1.20
2022-09-21T05:24:15.465Z,1.30
2022-09-21T05:26:41.782Z,1.08
2022-09-21T05:29:08.661Z,1.00
2022-09-21T05:31:45.732Z,1.27
2022-09-21T05:34:26.563Z,1.45
2022-09-21T05:37:00.719Z,2.03
2022-09-21T05:39:27.342Z,2.38
2022-09-21T05:41:53.931Z,2.00
2022-09-21T05:44:21.549Z,2.33
2022-09-21T05:47:09.368Z,2.30
2022-09-21T05:49:35.652Z,2.65
2022-09-21T05:52:19.692Z,2.20
2022-09-21T05:55:14.180Z,3.85
2022-09-21T05:58:01.797Z,2.78
2022-09-21T06:00:39.300Z,2.90
2022-09-21T06:03:27.388Z,2.47
2022-09-21T06:05:54.008Z,2.22
2022-09-21T06:08:20.662Z,2.90
2022-09-21T06:10:47.026Z,2.90
2022-09-21T06:13:13.680Z,2.58
2022-09-21T06:15:40.219Z,2.97
2022-09-21T06:18:07.685Z,2.92
2022-09-21T06:20:34.577Z,2.50
2022-09-21T06:23:09.555Z,2.20
2022-09-21T06:25:36.492Z,2.33
2022-09-21T06:28:10.807Z,2.40
2022-09-21T06:30:38.984Z,2.70
2022-09-21T06:33:06.828Z,2.65
2022-09-21T06:35:34.860Z,2.47
2022-09-21T06:38:03.747Z,2.88
2022-09-21T06:40:33.327Z,2.50
2022-09-21T06:43:01.593Z,2.97
2022-09-21T06:45:29.766Z,2.95
2022-09-21T06:47:56.197Z,3.10
2022-09-21T06:50:23.414Z,3.08
2022-09-21T06:52:49.967Z,2.53
2022-09-21T06:55:16.578Z,2.90
2022-09-21T06:57:43.639Z,3.35
2022-09-21T07:00:11.960Z,3.40
2022-09-21T07:02:38.328Z,3.00
2022-09-21T07:05:05.214Z,3.50
2022-09-21T07:07:32.030Z,3.45
2022-09-21T07:10:05.743Z,3.38
2022-09-21T07:12:35.850Z,3.63
2022-09-21T07:15:03.904Z,3.33
2022-09-21T07:17:37.981Z,3.25
2022-09-21T07:20:05.910Z,3.35
2022-09-21T07:22:32.697Z,3.05
2022-09-21T07:24:59.546Z,3.63
2022-09-21T07:27:27.819Z,3.33
2022-09-21T07:29:54.162Z,3.50
2022-09-21T07:32:20.859Z,3.38
2022-09-21T07:34:47.204Z,3.28
2022-09-21T07:37:14.422Z,3.25
2022-09-21T07:39:41.024Z,3.15
2022-09-21T07:42:07.584Z,3.55
2022-09-21T07:44:34.154Z,3.45
2022-09-21T07:47:03.147Z,3.83
2022-09-21T07:49:29.446Z,3.38
2022-09-21T07:51:59.053Z,3.55
2022-09-21T07:54:27.923Z,3.63
2022-09-21T07:57:12.927Z,3.10
2022-09-21T07:59:39.221Z,3.35
2022-09-21T08:02:05.579Z,3.83
2022-09-21T08:04:31.959Z,3.15
2022-09-21T08:06:58.265Z,3.30
2022-09-21T08:09:25.129Z,3.38
2022-09-21T08:11:52.884Z,3.53
2022-09-21T08:14:25.227Z,2.88
2022-09-21T08:16:52.800Z,3.60
2022-09-21T08:19:20.242Z,2.92
2022-09-21T08:21:51.443Z,2.78
2022-09-21T08:24:21.268Z,3.47
2022-09-21T08:26:48.244Z,3.28
2022-09-21T08:29:15.591Z,3.22
2022-09-21T08:31:42.107Z,3.00
2022-09-21T08:34:08.623Z,2.70
2022-09-21T08:36:35.114Z,4.10
2022-09-21T08:39:03.761Z,2.50
2022-09-21T08:42:05.369Z,2.35
2022-09-21T08:47:49.293Z,1.58
2022-09-21T08:50:33.033Z,1.33
2022-09-21T08:53:13.273Z,1.20
2022-09-21T08:55:39.597Z,1.25
2022-09-21T08:58:25.230Z,0.93
2022-09-21T09:01:25.199Z,0.70
2022-09-21T09:04:16.119Z,0.60
2022-09-21T09:06:45.415Z,0.52
2022-09-21T09:09:32.006Z,0.80
2022-09-21T09:12:23.327Z,0.82
2022-09-21T09:15:07.460Z,0.50
2022-09-21T09:18:22.636Z,0.90
2022-09-21T09:20:55.520Z,0.90
2022-09-21T09:23:46.671Z,0.38
2022-09-21T09:26:23.504Z,0.40
2022-09-21T09:29:06.485Z,0.70
2022-09-21T09:31:37.967Z,1.00
2022-09-21T09:34:26.353Z,0.75
2022-09-21T09:36:59.957Z,0.50
2022-09-21T09:39:29.428Z,0.70
2022-09-21T09:42:16.502Z,1.20
2022-09-21T09:45:16.092Z,0.40
2022-09-21T09:47:54.646Z,0.77
2022-09-21T09:50:29.206Z,0.68
2022-09-21T09:53:05.015Z,0.50
2022-09-21T09:55:46.183Z,0.75
2022-09-21T09:58:30.904Z,0.50
2022-09-21T10:00:58.955Z,0.45
2022-09-21T10:03:27.468Z,0.60
2022-09-21T10:05:54.642Z,1.02
2022-09-21T10:08:44.585Z,1.27
2022-09-21T10:11:13.627Z,1.00
2022-09-21T10:13:43.052Z,0.50
2022-09-21T10:16:21.592Z,0.52
2022-09-21T10:18:53.109Z,0.50
2022-09-21T10:21:23.146Z,0.77
2022-09-21T10:23:53.974Z,0.40
2022-09-21T10:26:21.360Z,0.60
2022-09-21T10:29:02.557Z,0.60
2022-09-21T10:31:30.852Z,0.68
2022-09-21T10:34:12.566Z,0.50
2022-09-21T10:36:38.940Z,0.50
2022-09-21T10:39:18.677Z,0.98
2022-09-21T10:41:54.628Z,0.50
2022-09-21T10:44:23.383Z,0.52
2022-09-21T10:46:50.829Z,0.30
2022-09-21T10:49:28.603Z,0.30
2022-09-21T10:51:58.889Z,0.30
2022-09-21T10:54:30.175Z,0.40
2022-09-21T10:59:30.724Z,0.38
2022-09-21T11:02:00.231Z,0.32
2022-09-21T11:04:41.370Z,0.57
2022-09-21T11:07:16.357Z,0.50
2022-09-21T11:10:11.869Z,0.40
2022-09-21T11:13:04.562Z,0.30
2022-09-21T11:15:56.892Z,0.57
2022-09-21T11:18:57.602Z,0.40
2022-09-21T11:21:43.218Z,0.40
2022-09-21T11:24:32.873Z,0.32
2022-09-21T11:27:21.286Z,0.40
2022-09-21T11:30:07.173Z,0.20
2022-09-21T11:33:02.597Z,0.22
2022-09-21T11:35:40.727Z,0.25
2022-09-21T11:38:34.301Z,0.20
2022-09-21T11:41:30.172Z,0.20
2022-09-21T11:44:19.524Z,0.20
2022-09-21T11:46:59.293Z,0.40
2022-09-21T11:49:47.209Z,0.40
2022-09-21T11:52:32.173Z,0.20
2022-09-21T11:55:20.052Z,0.32
2022-09-21T11:58:10.358Z,0.13
2022-09-21T12:01:00.317Z,0.28
2022-09-21T12:03:40.433Z,0.50
2022-09-21T12:06:35.142Z,0.20
2022-09-21T12:09:13.746Z,0.50
2022-09-21T12:11:44.289Z,0.20
2022-09-21T12:14:28.393Z,0.20
2022-09-21T12:17:05.894Z,0.30
2022-09-21T12:20:02.340Z,0.35
2022-09-21T12:22:36.047Z,0.30
2022-09-21T12:25:16.844Z,0.45
2022-09-21T12:27:50.007Z,0.40
2022-09-21T12:30:22.441Z,0.30
2022-09-21T12:32:53.358Z,0.32
2022-09-21T12:35:23.971Z,0.30
2022-09-21T12:38:03.937Z,0.50
2022-09-21T12:40:47.308Z,0.20
2022-09-21T12:43:17.453Z,0.40
2022-09-21T12:45:53.216Z,0.32
2022-09-21T12:48:38.826Z,0.50
2022-09-21T12:51:19.885Z,0.38
2022-09-21T12:53:50.872Z,0.45
2022-09-21T12:56:40.317Z,0.38
2022-09-21T12:59:12.754Z,0.32
2022-09-21T13:01:53.389Z,0.30
2022-09-21T13:04:57.463Z,0.35
2022-09-21T13:08:01.304Z,0.98
2022-09-21T13:10:28.019Z,0.35
2022-09-21T13:13:02.015Z,0.30
2022-09-21T13:15:40.909Z,0.32
2022-09-21T13:18:22.576Z,0.65
2022-09-21T13:20:51.971Z,0.30
2022-09-21T13:23:23.872Z,0.30
2022-09-21T13:26:00.776Z,0.38
2022-09-21T13:28:54.854Z,0.38
2022-09-21T13:31:42.083Z,0.30
2022-09-21T13:34:24.688Z,0.50
2022-09-21T13:37:10.975Z,0.50
2022-09-21T13:39:42.856Z,0.40
2022-09-21T13:42:34.528Z,0.32
2022-09-21T13:45:13.661Z,0.40
2022-09-21T13:47:48.055Z,0.40
2022-09-21T13:50:28.761Z,0.55
2022-09-21T13:53:02.815Z,0.45
2022-09-21T13:55:30.365Z,0.50
2022-09-21T13:58:01.960Z,0.60
2022-09-21T14:00:36.130Z,0.43
2022-09-21T14:03:06.268Z,0.90
2022-09-21T14:05:42.025Z,0.50
2022-09-21T14:08:14.501Z,0.52
2022-09-21T14:10:58.800Z,0.55
2022-09-21T14:13:30.745Z,0.50
2022-09-21T14:16:56.479Z,0.50
2022-09-21T14:19:32.828Z,0.50
2022-09-21T14:22:07.972Z,0.70
2022-09-21T14:24:34.524Z,0.60
2022-09-21T14:27:09.363Z,0.70
2022-09-21T14:29:44.539Z,0.57
2022-09-21T14:32:17.098Z,0.68
2022-09-21T14:34:47.458Z,0.68
2022-09-21T14:37:27.606Z,0.70
2022-09-21T14:39:54.612Z,0.47
2022-09-21T14:42:27.178Z,0.80
2022-09-21T14:44:56.975Z,0.60
2022-09-21T14:50:28.682Z,0.60
2022-09-21T14:53:28.026Z,0.70
2022-09-21T14:56:29.784Z,0.50
2022-09-21T14:59:07.653Z,0.47
2022-09-21T15:01:34.260Z,0.40
2022-09-21T15:04:03.476Z,0.60
2022-09-21T15:06:54.976Z,0.75
2022-09-21T15:10:07.818Z,0.50
2022-09-21T15:12:51.332Z,0.98
2022-09-21T15:15:23.829Z,0.75
2022-09-21T15:17:59.979Z,0.55
2022-09-21T15:20:29.385Z,0.52
2022-09-21T15:22:57.341Z,0.70
2022-09-21T15:25:27.591Z,0.40
2022-09-21T15:27:54.786Z,0.60
2022-09-21T15:30:27.156Z,0.50
2022-09-21T15:33:01.829Z,0.50
2022-09-21T15:35:31.120Z,0.50
2022-09-21T15:38:00.786Z,0.50
2022-09-21T15:40:35.037Z,0.60
2022-09-21T15:43:19.385Z,0.50
2022-09-21T15:45:58.041Z,0.70
2022-09-21T15:48:36.372Z,0.60
2022-09-21T15:51:15.533Z,0.63
2022-09-21T15:53:49.116Z,0.57
2022-09-21T15:56:25.569Z,0.63
2022-09-21T15:59:03.290Z,0.40
2022-09-21T16:01:31.485Z,0.32
2022-09-21T16:04:07.895Z,0.40
2022-09-21T16:06:47.045Z,0.40
2022-09-21T16:09:25.889Z,0.57
2022-09-21T16:11:53.653Z,0.60
2022-09-21T16:14:38.577Z,0.57
2022-09-21T16:17:13.856Z,0.70
2022-09-21T16:19:50.670Z,0.60
2022-09-21T16:22:24.109Z,0.50
2022-09-21T16:24:52.692Z,0.50
2022-09-21T16:27:22.283Z,0.80
2022-09-21T16:29:51.122Z,0.50
2022-09-21T16:32:17.396Z,0.70
2022-09-21T16:34:45.755Z,0.52
2022-09-21T16:37:24.472Z,0.50
2022-09-21T16:39:55.393Z,0.70
2022-09-21T16:42:23.521Z,0.80
2022-09-21T16:44:50.368Z,0.60
2022-09-21T16:47:27.627Z,0.65
2022-09-21T16:49:56.957Z,0.52
2022-09-21T16:52:24.325Z,0.40
2022-09-21T16:54:50.909Z,0.40
2022-09-21T16:57:18.075Z,0.50
2022-09-21T16:59:44.426Z,0.55
2022-09-21T17:02:13.827Z,0.50
2022-09-21T17:04:40.907Z,0.40
2022-09-21T17:07:07.558Z,0.45
2022-09-21T17:09:38.075Z,0.70
2022-09-21T17:12:09.449Z,0.68
2022-09-21T17:14:37.032Z,0.70
2022-09-21T17:17:13.004Z,0.65
2022-09-21T17:19:41.915Z,0.52
2022-09-21T17:22:10.710Z,0.68
2022-09-21T17:24:50.312Z,0.63
2022-09-21T17:27:21.355Z,0.70
2022-09-21T17:29:49.412Z,0.80
2022-09-21T17:32:20.065Z,0.68
2022-09-21T17:34:49.987Z,0.70
2022-09-21T17:37:16.319Z,0.80
2022-09-21T17:39:44.848Z,1.10
2022-09-21T17:42:19.146Z,1.60
2022-09-21T17:44:55.130Z,1.98
2022-09-21T17:47:25.325Z,1.73
2022-09-21T17:49:52.010Z,2.20
2022-09-21T17:52:39.757Z,1.70
2022-09-21T17:55:08.667Z,1.05
2022-09-21T17:58:06.870Z,1.25
2022-09-21T18:00:50.598Z,0.93
2022-09-21T18:03:22.908Z,1.35
2022-09-21T18:05:50.987Z,1.10
2022-09-21T18:08:17.996Z,1.30
2022-09-21T18:10:56.765Z,1.40
2022-09-21T18:13:31.753Z,2.08
2022-09-21T18:16:22.564Z,1.88
2022-09-21T18:19:21.803Z,1.88
2022-09-21T18:21:52.604Z,2.08
2022-09-21T18:24:24.608Z,2.42
2022-09-21T18:26:54.165Z,2.50
2022-09-21T18:29:39.256Z,2.10
2022-09-21T18:32:39.644Z,2.00
2022-09-21T18:35:35.956Z,2.17
2022-09-21T18:38:41.663Z,2.33
2022-09-21T18:41:23.851Z,2.30
2022-09-21T18:43:59.413Z,1.60
2022-09-21T18:46:29.139Z,2.20
2022-09-21T18:49:20.121Z,1.58
2022-09-21T18:51:57.354Z,1.70
2022-09-21T18:54:28.583Z,1.80
2022-09-21T18:56:55.896Z,2.08
2022-09-21T18:59:22.996Z,2.15
2022-09-21T19:01:53.320Z,2.00
2022-09-21T19:04:20.330Z,2.67
2022-09-21T19:07:13.419Z,3.28
2022-09-21T19:09:57.409Z,2.17
2022-09-21T19:13:00.047Z,2.17
2022-09-21T19:16:08.558Z,2.30
2022-09-21T19:18:43.908Z,1.40
2022-09-21T19:21:45.804Z,1.30
2022-09-21T19:24:43.023Z,1.00
2022-09-21T19:27:34.163Z,1.30
2022-09-21T19:30:00.496Z,1.17
2022-09-21T19:32:41.820Z,1.20
2022-09-21T19:35:17.503Z,0.98
2022-09-21T19:37:44.043Z,1.20
2022-09-21T19:40:11.185Z,1.27
2022-09-21T19:42:54.787Z,1.35
2022-09-21T19:45:32.963Z,1.42
2022-09-21T19:48:04.786Z,1.42
2022-09-21T19:50:46.617Z,2.03
2022-09-21T19:53:32.520Z,2.55
2022-09-21T19:56:19.942Z,2.13
2022-09-21T19:59:05.303Z,2.15
2022-09-21T20:01:36.282Z,2.10
2022-09-21T20:06:38.931Z,1.80
2022-09-21T20:09:19.102Z,1.80
2022-09-21T20:12:14.989Z,1.55
2022-09-21T20:15:07.804Z,1.45
2022-09-21T20:17:41.485Z,1.63
2022-09-21T20:20:23.916Z,2.03
2022-09-21T20:22:51.276Z,1.90
2022-09-21T20:25:29.979Z,1.92
2022-09-21T20:27:57.659Z,2.45
2022-09-21T20:30:31.558Z,2.60
2022-09-21T20:33:05.243Z,2.90
2022-09-21T20:36:12.733Z,3.10
2022-09-21T20:39:31.834Z,3.85
2022-09-21T20:42:01.481Z,3.20
2022-09-21T20:44:27.848Z,3.40
2022-09-21T20:46:54.173Z,2.78
2022-09-21T20:49:22.997Z,3.15
2022-09-21T20:51:49.477Z,3.17
2022-09-21T20:54:18.973Z,3.53
2022-09-21T20:56:45.840Z,3.25
2022-09-21T20:59:13.102Z,2.67
2022-09-21T21:01:39.668Z,2.65
2022-09-21T21:04:06.055Z,2.38
2022-09-21T21:06:34.887Z,2.30
2022-09-21T21:09:01.222Z,2.63
2022-09-21T21:11:27.991Z,2.97
2022-09-21T21:13:56.199Z,2.20
2022-09-21T21:16:23.012Z,2.47
2022-09-21T21:18:49.492Z,2.60
2022-09-21T21:21:15.810Z,2.25
2022-09-21T21:24:00.795Z,2.30
2022-09-21T21:26:44.192Z,1.70
2022-09-21T21:29:13.901Z,2.13
2022-09-21T21:31:40.928Z,2.40
2022-09-21T21:34:07.274Z,2.10
2022-09-21T21:36:33.587Z,2.00
2022-09-21T21:38:59.957Z,2.28
2022-09-21T21:41:26.333Z,2.00
2022-09-21T21:43:52.657Z,2.20
2022-09-21T21:46:19.377Z,2.00
2022-09-21T21:48:45.736Z,2.50
2022-09-21T21:51:12.697Z,2.55
2022-09-21T21:53:40.130Z,2.50
2022-09-21T21:56:12.378Z,2.10
2022-09-21T21:58:39.379Z,2.05
2022-09-21T22:01:19.132Z,2.17
2022-09-21T22:03:45.569Z,2.10
2022-09-21T22:06:12.091Z,2.22
2022-09-21T22:08:39.951Z,1.95
2022-09-21T22:11:07.326Z,2.00
2022-09-21T22:13:38.526Z,2.00
2022-09-21T22:18:32.322Z,2.15
2022-09-21T22:21:10.808Z,1.92
2022-09-21T22:23:38.033Z,2.28
2022-09-21T22:26:12.868Z,2.60
2022-09-21T22:28:41.406Z,2.40
2022-09-21T22:31:10.290Z,2.53
2022-09-21T22:33:37.401Z,1.80
2022-09-21T22:36:05.992Z,2.03
2022-09-21T22:38:33.766Z,2.10
2022-09-21T22:41:07.665Z,2.10
2022-09-21T22:43:34.550Z,2.28
2022-09-21T22:46:02.041Z,2.30
2022-09-21T22:48:28.971Z,1.90
2022-09-21T22:50:55.690Z,2.00
2022-09-21T22:53:22.874Z,2.03
2022-09-21T22:55:59.847Z,2.10
2022-09-21T22:58:26.170Z,1.90
2022-09-21T23:00:52.569Z,2.03
2022-09-21T23:03:18.906Z,1.77
2022-09-21T23:05:55.654Z,1.70
2022-09-21T23:08:21.991Z,1.77
2022-09-21T23:10:48.396Z,1.80
2022-09-21T23:13:15.884Z,1.63
2022-09-21T23:15:42.735Z,1.70
2022-09-21T23:18:09.724Z,1.77
2022-09-21T23:20:36.909Z,1.75
2022-09-21T23:23:03.584Z,1.40
2022-09-21T23:25:29.974Z,1.80
2022-09-21T23:27:57.608Z,1.45
2022-09-21T23:30:23.974Z,1.65
2022-09-21T23:32:53.355Z,1.52
2022-09-21T23:35:19.706Z,1.60
2022-09-21T23:37:46.073Z,1.70
2022-09-21T23:40:12.906Z,1.40
2022-09-21T23:42:39.262Z,1.50
2022-09-21T23:45:06.067Z,1.38
2022-09-21T23:47:32.403Z,1.67
2022-09-21T23:49:58.702Z,1.65
2022-09-21T23:52:25.020Z,1.42
2022-09-21T23:54:51.323Z,1.60
2022-09-21T23:57:17.734Z,1.35
2022-09-21T23:59:44.065Z,1.30
